Terminal Aerodrome Forecast
Issued by NWS

Current Version | Previous Version | Text Only | Print | Product List | Glossary On
Versions: 1 2 3 4 5 6 7 8 9 10 11 12 13
000
FTUS44 KJAN 172300
TAFHKS
TAF
KHKS 172334Z 1800/1824 10004KT P6SM SCT050 OVC250
     FM180700 08005KT P6SM OVC025
     FM180900 05008KT P6SM OVC015
     FM181800 04009KT P6SM BKN040=

USA.gov is the U.S. government's official web portal to all federal, state and local government web resources and services.